sensor_id;sensor_type;location;lat;lon;timestamp;pressure;altitude;pressure_sealevel;temperature;humidity
49645;BME280;36494;50.730;-1.932;2023-02-18T00:01:24;102009.87;;;10.49;100.00
49645;BME280;36494;50.730;-1.932;2023-02-18T00:03:51;102007.80;;;10.43;100.00
49645;BME280;36494;50.730;-1.932;2023-02-18T00:06:17;102011.69;;;10.44;100.00
49645;BME280;36494;50.730;-1.932;2023-02-18T00:08:42;102009.73;;;10.43;100.00
49645;BME280;36494;50.730;-1.932;2023-02-18T00:11:07;102006.76;;;10.50;100.00
49645;BME280;36494;50.730;-1.932;2023-02-18T00:13:33;102003.88;;;10.48;100.00
49645;BME280;36494;50.730;-1.932;2023-02-18T00:16:00;102001.92;;;10.46;100.00
49645;BME280;36494;50.730;-1.932;2023-02-18T00:18:23;102000.09;;;10.52;100.00
49645;BME280;36494;50.730;-1.932;2023-02-18T00:20:49;101996.20;;;10.48;100.00
49645;BME280;36494;50.730;-1.932;2023-02-18T00:23:14;101992.48;;;10.44;100.00
49645;BME280;36494;50.730;-1.932;2023-02-18T00:25:39;101986.21;;;10.48;100.00
49645;BME280;36494;50.730;-1.932;2023-02-18T00:28:05;101990.40;;;10.48;100.00
49645;BME280;36494;50.730;-1.932;2023-02-18T00:30:30;101989.40;;;10.45;100.00
49645;BME280;36494;50.730;-1.932;2023-02-18T00:32:56;101991.72;;;10.54;100.00
49645;BME280;36494;50.730;-1.932;2023-02-18T00:35:21;101993.63;;;10.52;100.00
49645;BME280;36494;50.730;-1.932;2023-02-18T00:37:49;101991.63;;;10.52;100.00
49645;BME280;36494;50.730;-1.932;2023-02-18T00:40:12;101999.30;;;10.48;100.00
49645;BME280;36494;50.730;-1.932;2023-02-18T00:42:37;101996.93;;;10.47;100.00
49645;BME280;36494;50.730;-1.932;2023-02-18T00:45:03;101998.04;;;10.54;100.00
49645;BME280;36494;50.730;-1.932;2023-02-18T00:47:28;101997.92;;;10.52;100.00
49645;BME280;36494;50.730;-1.932;2023-02-18T00:49:54;101999.31;;;10.47;100.00
49645;BME280;36494;50.730;-1.932;2023-02-18T00:52:19;102001.24;;;10.53;100.00
49645;BME280;36494;50.730;-1.932;2023-02-18T00:54:45;101993.03;;;10.50;100.00
49645;BME280;36494;50.730;-1.932;2023-02-18T00:57:10;101987.23;;;10.46;100.00
49645;BME280;36494;50.730;-1.932;2023-02-18T00:59:36;101984.96;;;10.50;100.00
49645;BME280;36494;50.730;-1.932;2023-02-18T01:02:01;101988.49;;;10.55;100.00
49645;BME280;36494;50.730;-1.932;2023-02-18T01:04:26;101992.22;;;10.55;100.00
49645;BME280;36494;50.730;-1.932;2023-02-18T01:06:52;101995.19;;;10.52;100.00
49645;BME280;36494;50.730;-1.932;2023-02-18T01:09:18;101996.66;;;10.46;100.00
49645;BME280;36494;50.730;-1.932;2023-02-18T01:11:43;101995.01;;;10.49;100.00
49645;BME280;36494;50.730;-1.932;2023-02-18T01:14:09;101988.18;;;10.45;100.00
49645;BME280;36494;50.730;-1.932;2023-02-18T01:16:34;101983.78;;;10.47;100.00
49645;BME280;36494;50.730;-1.932;2023-02-18T01:18:59;101983.38;;;10.49;100.00
49645;BME280;36494;50.730;-1.932;2023-02-18T01:21:24;101989.47;;;10.44;100.00
49645;BME280;36494;50.730;-1.932;2023-02-18T01:23:50;101993.86;;;10.45;100.00
49645;BME280;36494;50.730;-1.932;2023-02-18T01:26:15;101992.50;;;10.49;100.00
49645;BME280;36494;50.730;-1.932;2023-02-18T01:28:40;101996.12;;;10.45;100.00
49645;BME280;36494;50.730;-1.932;2023-02-18T01:31:07;101995.86;;;10.48;100.00
49645;BME280;36494;50.730;-1.932;2023-02-18T01:33:30;101987.83;;;10.44;100.00
49645;BME280;36494;50.730;-1.932;2023-02-18T01:35:56;101991.10;;;10.43;100.00
49645;BME280;36494;50.730;-1.932;2023-02-18T01:38:22;101991.34;;;10.45;100.00
49645;BME280;36494;50.730;-1.932;2023-02-18T01:40:50;101991.06;;;10.44;100.00
49645;BME280;36494;50.730;-1.932;2023-02-18T01:43:14;101990.53;;;10.42;100.00
49645;BME280;36494;50.730;-1.932;2023-02-18T01:45:51;101990.04;;;10.28;100.00
49645;BME280;36494;50.730;-1.932;2023-02-18T01:48:07;101990.29;;;10.39;100.00
49645;BME280;36494;50.730;-1.932;2023-02-18T01:50:29;101982.96;;;10.35;100.00
49645;BME280;36494;50.730;-1.932;2023-02-18T01:52:54;101986.67;;;10.39;100.00
49645;BME280;36494;50.730;-1.932;2023-02-18T01:55:20;101993.15;;;10.31;100.00
49645;BME280;36494;50.730;-1.932;2023-02-18T01:57:45;101992.78;;;10.33;100.00
49645;BME280;36494;50.730;-1.932;2023-02-18T02:00:13;101992.89;;;10.30;100.00
49645;BME280;36494;50.730;-1.932;2023-02-18T02:02:38;101988.60;;;10.34;100.00
49645;BME280;36494;50.730;-1.932;2023-02-18T02:05:01;101988.33;;;10.34;100.00
49645;BME280;36494;50.730;-1.932;2023-02-18T02:07:27;101992.62;;;10.28;100.00
49645;BME280;36494;50.730;-1.932;2023-02-18T02:09:53;101988.29;;;10.34;100.00
49645;BME280;36494;50.730;-1.932;2023-02-18T02:12:30;101983.10;;;10.36;100.00
49645;BME280;36494;50.730;-1.932;2023-02-18T02:14:56;101982.73;;;10.40;100.00
49645;BME280;36494;50.730;-1.932;2023-02-18T02:17:13;101977.55;;;10.32;100.00
49645;BME280;36494;50.730;-1.932;2023-02-18T02:19:50;101979.63;;;10.31;100.00
49645;BME280;36494;50.730;-1.932;2023-02-18T02:22:18;101978.68;;;10.29;100.00
49645;BME280;36494;50.730;-1.932;2023-02-18T02:24:41;101974.94;;;10.31;100.00
49645;BME280;36494;50.730;-1.932;2023-02-18T02:26:58;101974.80;;;10.33;100.00
49645;BME280;36494;50.730;-1.932;2023-02-18T02:31:56;101969.22;;;10.29;100.00
49645;BME280;36494;50.730;-1.932;2023-02-18T02:34:21;101968.05;;;10.28;100.00
49645;BME280;36494;50.730;-1.932;2023-02-18T02:36:36;101966.16;;;10.19;100.00
49645;BME280;36494;50.730;-1.932;2023-02-18T02:39:02;101966.69;;;10.22;100.00
49645;BME280;36494;50.730;-1.932;2023-02-18T02:41:38;101964.11;;;10.13;100.00
49645;BME280;36494;50.730;-1.932;2023-02-18T02:43:55;101955.94;;;10.16;100.00
49645;BME280;36494;50.730;-1.932;2023-02-18T02:46:17;101954.69;;;10.18;100.00
49645;BME280;36494;50.730;-1.932;2023-02-18T02:48:43;101953.67;;;10.17;100.00
49645;BME280;36494;50.730;-1.932;2023-02-18T02:51:09;101951.36;;;10.18;100.00
49645;BME280;36494;50.730;-1.932;2023-02-18T02:53:33;101954.61;;;10.10;100.00
49645;BME280;36494;50.730;-1.932;2023-02-18T02:55:55;101945.84;;;10.07;100.00
49645;BME280;36494;50.730;-1.932;2023-02-18T02:58:21;101948.78;;;10.06;100.00
49645;BME280;36494;50.730;-1.932;2023-02-18T03:00:55;101937.07;;;10.08;100.00
49645;BME280;36494;50.730;-1.932;2023-02-18T03:03:23;101932.47;;;10.00;100.00
49645;BME280;36494;50.730;-1.932;2023-02-18T03:05:47;101926.93;;;10.11;100.00
49645;BME280;36494;50.730;-1.932;2023-02-18T03:08:10;101925.02;;;10.09;100.00
49645;BME280;36494;50.730;-1.932;2023-02-18T03:10:39;101926.28;;;10.12;100.00
49645;BME280;36494;50.730;-1.932;2023-02-18T03:13:00;101927.95;;;10.01;100.00
49645;BME280;36494;50.730;-1.932;2023-02-18T03:15:25;101924.90;;;10.00;100.00
49645;BME280;36494;50.730;-1.932;2023-02-18T03:17:48;101919.75;;;10.07;100.00
49645;BME280;36494;50.730;-1.932;2023-02-18T03:20:14;101919.38;;;10.00;100.00
49645;BME280;36494;50.730;-1.932;2023-02-18T03:22:38;101911.87;;;9.96;100.00
49645;BME280;36494;50.730;-1.932;2023-02-18T03:25:02;101908.33;;;9.93;100.00
49645;BME280;36494;50.730;-1.932;2023-02-18T03:27:28;101905.01;;;9.98;100.00
49645;BME280;36494;50.730;-1.932;2023-02-18T03:29:55;101904.99;;;9.99;100.00
49645;BME280;36494;50.730;-1.932;2023-02-18T03:32:19;101903.78;;;9.96;100.00
49645;BME280;36494;50.730;-1.932;2023-02-18T03:34:47;101904.34;;;10.02;100.00
49645;BME280;36494;50.730;-1.932;2023-02-18T03:37:09;101902.72;;;9.96;100.00
49645;BME280;36494;50.730;-1.932;2023-02-18T03:39:36;101901.92;;;10.00;100.00
49645;BME280;36494;50.730;-1.932;2023-02-18T03:41:59;101893.86;;;9.90;100.00
49645;BME280;36494;50.730;-1.932;2023-02-18T03:44:24;101891.30;;;9.91;100.00
49645;BME280;36494;50.730;-1.932;2023-02-18T03:46:50;101888.19;;;9.98;100.00
49645;BME280;36494;50.730;-1.932;2023-02-18T03:49:16;101889.17;;;10.00;100.00
49645;BME280;36494;50.730;-1.932;2023-02-18T03:51:42;101884.30;;;10.00;100.00
49645;BME280;36494;50.730;-1.932;2023-02-18T03:54:07;101880.63;;;10.01;100.00
49645;BME280;36494;50.730;-1.932;2023-02-18T03:56:33;101881.53;;;9.92;100.00
49645;BME280;36494;50.730;-1.932;2023-02-18T03:58:58;101879.28;;;10.00;100.00
49645;BME280;36494;50.730;-1.932;2023-02-18T04:01:23;101875.72;;;9.95;100.00
49645;BME280;36494;50.730;-1.932;2023-02-18T04:03:48;101867.97;;;9.95;100.00
49645;BME280;36494;50.730;-1.932;2023-02-18T04:06:14;101865.27;;;9.91;100.00
49645;BME280;36494;50.730;-1.932;2023-02-18T04:08:39;101864.02;;;9.98;100.00
49645;BME280;36494;50.730;-1.932;2023-02-18T04:11:05;101863.87;;;9.94;100.00
49645;BME280;36494;50.730;-1.932;2023-02-18T04:13:30;101861.46;;;9.97;100.00
49645;BME280;36494;50.730;-1.932;2023-02-18T04:15:55;101859.27;;;9.96;100.00
49645;BME280;36494;50.730;-1.932;2023-02-18T04:18:20;101861.67;;;9.92;100.00
49645;BME280;36494;50.730;-1.932;2023-02-18T04:20:46;101863.48;;;9.85;100.00
49645;BME280;36494;50.730;-1.932;2023-02-18T04:23:11;101860.97;;;9.84;100.00
49645;BME280;36494;50.730;-1.932;2023-02-18T04:25:37;101865.25;;;9.93;100.00
49645;BME280;36494;50.730;-1.932;2023-02-18T04:28:02;101873.85;;;9.94;100.00
49645;BME280;36494;50.730;-1.932;2023-02-18T04:30:27;101866.17;;;9.93;100.00
49645;BME280;36494;50.730;-1.932;2023-02-18T04:32:52;101862.20;;;9.90;100.00
49645;BME280;36494;50.730;-1.932;2023-02-18T04:35:18;101858.51;;;9.97;100.00
49645;BME280;36494;50.730;-1.932;2023-02-18T04:37:43;101858.99;;;9.94;100.00
49645;BME280;36494;50.730;-1.932;2023-02-18T04:40:09;101864.72;;;9.89;100.00
49645;BME280;36494;50.730;-1.932;2023-02-18T04:42:34;101863.88;;;9.93;100.00
49645;BME280;36494;50.730;-1.932;2023-02-18T04:44:59;101863.61;;;9.91;100.00
49645;BME280;36494;50.730;-1.932;2023-02-18T04:47:24;101868.43;;;9.84;100.00
49645;BME280;36494;50.730;-1.932;2023-02-18T04:49:50;101866.06;;;9.87;100.00
49645;BME280;36494;50.730;-1.932;2023-02-18T04:52:15;101866.11;;;9.94;100.00
49645;BME280;36494;50.730;-1.932;2023-02-18T04:54:40;101878.08;;;9.86;100.00
49645;BME280;36494;50.730;-1.932;2023-02-18T04:57:06;101868.48;;;9.88;100.00
49645;BME280;36494;50.730;-1.932;2023-02-18T04:59:31;101865.20;;;9.89;100.00
49645;BME280;36494;50.730;-1.932;2023-02-18T05:01:56;101866.27;;;9.90;100.00
49645;BME280;36494;50.730;-1.932;2023-02-18T05:04:22;101863.84;;;9.89;100.00
49645;BME280;36494;50.730;-1.932;2023-02-18T05:06:47;101870.36;;;9.87;100.00
49645;BME280;36494;50.730;-1.932;2023-02-18T05:09:13;101865.06;;;9.88;100.00
49645;BME280;36494;50.730;-1.932;2023-02-18T05:11:38;101862.77;;;9.88;100.00
49645;BME280;36494;50.730;-1.932;2023-02-18T05:14:04;101870.86;;;9.87;100.00
49645;BME280;36494;50.730;-1.932;2023-02-18T05:16:29;101870.00;;;9.96;100.00
49645;BME280;36494;50.730;-1.932;2023-02-18T05:18:54;101865.26;;;9.99;100.00
49645;BME280;36494;50.730;-1.932;2023-02-18T05:21:19;101868.79;;;10.04;100.00
49645;BME280;36494;50.730;-1.932;2023-02-18T05:23:45;101861.34;;;10.01;100.00
49645;BME280;36494;50.730;-1.932;2023-02-18T05:26:10;101860.01;;;10.09;100.00
49645;BME280;36494;50.730;-1.932;2023-02-18T05:28:35;101859.66;;;10.11;100.00
49645;BME280;36494;50.730;-1.932;2023-02-18T05:31:01;101859.10;;;10.00;100.00
49645;BME280;36494;50.730;-1.932;2023-02-18T05:33:26;101857.94;;;10.07;100.00
49645;BME280;36494;50.730;-1.932;2023-02-18T05:35:52;101860.43;;;10.06;100.00
49645;BME280;36494;50.730;-1.932;2023-02-18T05:38:17;101865.48;;;10.04;100.00
49645;BME280;36494;50.730;-1.932;2023-02-18T05:40:42;101863.45;;;10.00;100.00
49645;BME280;36494;50.730;-1.932;2023-02-18T05:43:08;101867.17;;;10.02;100.00
49645;BME280;36494;50.730;-1.932;2023-02-18T05:45:33;101866.89;;;10.11;100.00
49645;BME280;36494;50.730;-1.932;2023-02-18T05:47:58;101867.63;;;10.12;100.00
49645;BME280;36494;50.730;-1.932;2023-02-18T05:50:23;101866.25;;;10.06;100.00
49645;BME280;36494;50.730;-1.932;2023-02-18T05:52:49;101865.20;;;10.07;100.00
49645;BME280;36494;50.730;-1.932;2023-02-18T05:55:14;101861.88;;;10.10;100.00
49645;BME280;36494;50.730;-1.932;2023-02-18T05:57:39;101868.64;;;10.08;100.00
49645;BME280;36494;50.730;-1.932;2023-02-18T06:00:06;101862.36;;;10.11;100.00
49645;BME280;36494;50.730;-1.932;2023-02-18T06:02:30;101865.43;;;10.12;100.00
49645;BME280;36494;50.730;-1.932;2023-02-18T06:04:55;101869.47;;;10.13;100.00
49645;BME280;36494;50.730;-1.932;2023-02-18T06:07:21;101859.84;;;10.09;100.00
49645;BME280;36494;50.730;-1.932;2023-02-18T06:09:46;101868.04;;;10.11;100.00
49645;BME280;36494;50.730;-1.932;2023-02-18T06:12:12;101862.64;;;10.11;100.00
49645;BME280;36494;50.730;-1.932;2023-02-18T06:14:37;101858.68;;;10.19;100.00
49645;BME280;36494;50.730;-1.932;2023-02-18T06:17:02;101858.46;;;10.18;100.00
49645;BME280;36494;50.730;-1.932;2023-02-18T06:19:28;101854.64;;;10.19;100.00
49645;BME280;36494;50.730;-1.932;2023-02-18T06:21:53;101855.26;;;10.14;100.00
49645;BME280;36494;50.730;-1.932;2023-02-18T06:24:18;101849.38;;;10.17;100.00
49645;BME280;36494;50.730;-1.932;2023-02-18T06:26:44;101846.72;;;10.14;100.00
49645;BME280;36494;50.730;-1.932;2023-02-18T06:29:09;101842.87;;;10.14;100.00
49645;BME280;36494;50.730;-1.932;2023-02-18T06:31:35;101840.98;;;10.13;100.00
49645;BME280;36494;50.730;-1.932;2023-02-18T06:34:00;101841.82;;;10.10;100.00
49645;BME280;36494;50.730;-1.932;2023-02-18T06:36:26;101841.56;;;10.16;100.00
49645;BME280;36494;50.730;-1.932;2023-02-18T06:38:51;101845.39;;;10.19;100.00
49645;BME280;36494;50.730;-1.932;2023-02-18T06:41:16;101846.73;;;10.17;100.00
49645;BME280;36494;50.730;-1.932;2023-02-18T06:43:42;101845.69;;;10.13;100.00
49645;BME280;36494;50.730;-1.932;2023-02-18T06:46:07;101845.41;;;10.16;100.00
49645;BME280;36494;50.730;-1.932;2023-02-18T06:48:33;101850.88;;;10.21;100.00
49645;BME280;36494;50.730;-1.932;2023-02-18T06:50:58;101852.76;;;10.12;100.00
49645;BME280;36494;50.730;-1.932;2023-02-18T06:53:23;101853.01;;;10.17;100.00
49645;BME280;36494;50.730;-1.932;2023-02-18T06:55:49;101850.17;;;10.15;100.00
49645;BME280;36494;50.730;-1.932;2023-02-18T06:58:14;101845.24;;;10.04;100.00
49645;BME280;36494;50.730;-1.932;2023-02-18T07:00:40;101845.58;;;10.05;100.00
49645;BME280;36494;50.730;-1.932;2023-02-18T07:03:05;101848.37;;;10.04;100.00
49645;BME280;36494;50.730;-1.932;2023-02-18T07:05:30;101845.20;;;10.00;100.00
49645;BME280;36494;50.730;-1.932;2023-02-18T07:07:55;101847.16;;;10.13;100.00
49645;BME280;36494;50.730;-1.932;2023-02-18T07:10:20;101841.65;;;10.01;100.00
49645;BME280;36494;50.730;-1.932;2023-02-18T07:12:45;101843.62;;;10.09;100.00
49645;BME280;36494;50.730;-1.932;2023-02-18T07:15:11;101845.47;;;10.08;100.00
49645;BME280;36494;50.730;-1.932;2023-02-18T07:17:36;101850.34;;;10.00;100.00
49645;BME280;36494;50.730;-1.932;2023-02-18T07:20:02;101842.90;;;10.08;100.00
49645;BME280;36494;50.730;-1.932;2023-02-18T07:22:27;101837.09;;;10.05;100.00
49645;BME280;36494;50.730;-1.932;2023-02-18T07:24:53;101839.58;;;10.05;100.00
49645;BME280;36494;50.730;-1.932;2023-02-18T07:27:19;101844.66;;;10.11;100.00
49645;BME280;36494;50.730;-1.932;2023-02-18T07:29:44;101846.79;;;10.09;100.00
49645;BME280;36494;50.730;-1.932;2023-02-18T07:32:11;101846.05;;;10.14;100.00
49645;BME280;36494;50.730;-1.932;2023-02-18T07:34:35;101847.22;;;10.09;100.00
49645;BME280;36494;50.730;-1.932;2023-02-18T07:37:00;101843.18;;;10.10;100.00
49645;BME280;36494;50.730;-1.932;2023-02-18T07:39:26;101843.12;;;10.01;100.00
49645;BME280;36494;50.730;-1.932;2023-02-18T07:41:51;101847.41;;;10.08;100.00
49645;BME280;36494;50.730;-1.932;2023-02-18T07:44:16;101847.82;;;10.06;100.00
49645;BME280;36494;50.730;-1.932;2023-02-18T07:46:42;101847.07;;;10.12;100.00
49645;BME280;36494;50.730;-1.932;2023-02-18T07:49:08;101841.14;;;10.07;100.00
49645;BME280;36494;50.730;-1.932;2023-02-18T07:51:33;101837.84;;;10.05;100.00
49645;BME280;36494;50.730;-1.932;2023-02-18T07:53:59;101840.16;;;10.03;100.00
49645;BME280;36494;50.730;-1.932;2023-02-18T07:56:24;101832.42;;;9.91;100.00
49645;BME280;36494;50.730;-1.932;2023-02-18T07:58:49;101830.53;;;9.88;100.00
49645;BME280;36494;50.730;-1.932;2023-02-18T08:01:15;101828.09;;;9.99;100.00
49645;BME280;36494;50.730;-1.932;2023-02-18T08:03:40;101832.35;;;10.04;100.00
49645;BME280;36494;50.730;-1.932;2023-02-18T08:06:06;101834.56;;;10.07;100.00
49645;BME280;36494;50.730;-1.932;2023-02-18T08:08:32;101836.22;;;10.10;100.00
49645;BME280;36494;50.730;-1.932;2023-02-18T08:11:00;101841.51;;;10.13;100.00
49645;BME280;36494;50.730;-1.932;2023-02-18T08:13:22;101835.89;;;10.21;100.00
49645;BME280;36494;50.730;-1.932;2023-02-18T08:15:48;101843.06;;;10.21;100.00
49645;BME280;36494;50.730;-1.932;2023-02-18T08:18:15;101841.35;;;10.20;100.00
49645;BME280;36494;50.730;-1.932;2023-02-18T08:20:38;101844.45;;;10.23;100.00
49645;BME280;36494;50.730;-1.932;2023-02-18T08:23:05;101841.95;;;10.24;100.00
49645;BME280;36494;50.730;-1.932;2023-02-18T08:25:30;101845.78;;;10.23;100.00
49645;BME280;36494;50.730;-1.932;2023-02-18T08:27:56;101837.86;;;10.20;100.00
49645;BME280;36494;50.730;-1.932;2023-02-18T08:30:20;101841.05;;;10.20;100.00
49645;BME280;36494;50.730;-1.932;2023-02-18T08:32:46;101845.75;;;10.23;100.00
49645;BME280;36494;50.730;-1.932;2023-02-18T08:35:11;101843.26;;;10.28;100.00
49645;BME280;36494;50.730;-1.932;2023-02-18T08:37:37;101846.05;;;10.26;100.00
49645;BME280;36494;50.730;-1.932;2023-02-18T08:40:05;101852.05;;;10.28;100.00
49645;BME280;36494;50.730;-1.932;2023-02-18T08:42:28;101857.86;;;10.31;100.00
49645;BME280;36494;50.730;-1.932;2023-02-18T08:44:53;101860.99;;;10.36;100.00
49645;BME280;36494;50.730;-1.932;2023-02-18T08:47:19;101869.42;;;10.39;100.00
49645;BME280;36494;50.730;-1.932;2023-02-18T08:49:44;101870.88;;;10.40;100.00
49645;BME280;36494;50.730;-1.932;2023-02-18T08:52:10;101874.65;;;10.33;100.00
49645;BME280;36494;50.730;-1.932;2023-02-18T08:54:35;101878.58;;;10.42;100.00
49645;BME280;36494;50.730;-1.932;2023-02-18T08:57:00;101876.13;;;10.42;100.00
49645;BME280;36494;50.730;-1.932;2023-02-18T08:59:26;101880.24;;;10.44;100.00
49645;BME280;36494;50.730;-1.932;2023-02-18T09:01:51;101876.12;;;10.52;100.00
49645;BME280;36494;50.730;-1.932;2023-02-18T09:04:17;101888.25;;;10.55;100.00
49645;BME280;36494;50.730;-1.932;2023-02-18T09:06:41;101877.23;;;10.44;100.00
49645;BME280;36494;50.730;-1.932;2023-02-18T09:09:07;101875.78;;;10.46;100.00
49645;BME280;36494;50.730;-1.932;2023-02-18T09:11:32;101867.68;;;10.59;100.00
49645;BME280;36494;50.730;-1.932;2023-02-18T09:13:57;101869.76;;;10.57;100.00
49645;BME280;36494;50.730;-1.932;2023-02-18T09:16:22;101868.23;;;10.58;100.00
49645;BME280;36494;50.730;-1.932;2023-02-18T09:18:48;101866.87;;;10.61;100.00
49645;BME280;36494;50.730;-1.932;2023-02-18T09:21:14;101868.07;;;10.64;100.00
49645;BME280;36494;50.730;-1.932;2023-02-18T09:23:39;101872.22;;;10.67;100.00
49645;BME280;36494;50.730;-1.932;2023-02-18T09:26:06;101872.53;;;10.71;100.00
49645;BME280;36494;50.730;-1.932;2023-02-18T09:28:29;101872.50;;;10.69;100.00
49645;BME280;36494;50.730;-1.932;2023-02-18T09:30:55;101873.13;;;10.62;100.00
49645;BME280;36494;50.730;-1.932;2023-02-18T09:33:21;101874.24;;;10.77;100.00
49645;BME280;36494;50.730;-1.932;2023-02-18T09:35:46;101871.68;;;10.77;100.00
49645;BME280;36494;50.730;-1.932;2023-02-18T09:38:14;101872.73;;;10.80;100.00
49645;BME280;36494;50.730;-1.932;2023-02-18T09:40:39;101875.16;;;10.75;100.00
49645;BME280;36494;50.730;-1.932;2023-02-18T09:43:02;101870.09;;;10.79;100.00
49645;BME280;36494;50.730;-1.932;2023-02-18T09:45:28;101876.48;;;10.84;100.00
49645;BME280;36494;50.730;-1.932;2023-02-18T09:47:53;101873.18;;;10.84;100.00
49645;BME280;36494;50.730;-1.932;2023-02-18T09:50:20;101878.30;;;10.86;100.00
49645;BME280;36494;50.730;-1.932;2023-02-18T09:52:43;101879.14;;;10.91;100.00
49645;BME280;36494;50.730;-1.932;2023-02-18T09:55:17;101873.24;;;10.94;100.00
49645;BME280;36494;50.730;-1.932;2023-02-18T09:57:39;101875.34;;;10.96;100.00
49645;BME280;36494;50.730;-1.932;2023-02-18T10:00:02;101875.05;;;10.94;100.00
49645;BME280;36494;50.730;-1.932;2023-02-18T10:02:25;101875.79;;;10.93;100.00
49645;BME280;36494;50.730;-1.932;2023-02-18T10:04:50;101876.50;;;10.96;100.00
49645;BME280;36494;50.730;-1.932;2023-02-18T10:07:19;101878.36;;;11.04;100.00
49645;BME280;36494;50.730;-1.932;2023-02-18T10:09:41;101882.53;;;11.01;100.00
49645;BME280;36494;50.730;-1.932;2023-02-18T10:12:12;101879.01;;;11.09;100.00
49645;BME280;36494;50.730;-1.932;2023-02-18T10:14:32;101880.32;;;11.05;100.00
49645;BME280;36494;50.730;-1.932;2023-02-18T10:16:58;101875.05;;;11.12;100.00
49645;BME280;36494;50.730;-1.932;2023-02-18T10:19:28;101879.08;;;11.14;100.00
49645;BME280;36494;50.730;-1.932;2023-02-18T10:21:50;101876.38;;;11.16;100.00
49645;BME280;36494;50.730;-1.932;2023-02-18T10:24:23;101876.37;;;11.12;100.00
49645;BME280;36494;50.730;-1.932;2023-02-18T10:26:39;101883.10;;;11.16;100.00
49645;BME280;36494;50.730;-1.932;2023-02-18T10:29:08;101884.54;;;11.11;100.00
49645;BME280;36494;50.730;-1.932;2023-02-18T10:31:35;101881.33;;;11.18;100.00
49645;BME280;36494;50.730;-1.932;2023-02-18T10:33:59;101878.71;;;11.15;100.00
49645;BME280;36494;50.730;-1.932;2023-02-18T10:36:24;101882.02;;;11.07;100.00
49645;BME280;36494;50.730;-1.932;2023-02-18T10:38:58;101872.26;;;11.10;100.00
49645;BME280;36494;50.730;-1.932;2023-02-18T10:41:17;101869.35;;;11.15;100.00
49645;BME280;36494;50.730;-1.932;2023-02-18T10:43:43;101867.29;;;11.22;100.00
49645;BME280;36494;50.730;-1.932;2023-02-18T10:46:08;101865.26;;;11.21;100.00
49645;BME280;36494;50.730;-1.932;2023-02-18T10:48:43;101859.86;;;11.20;100.00
49645;BME280;36494;50.730;-1.932;2023-02-18T10:50:53;101859.35;;;11.12;100.00
49645;BME280;36494;50.730;-1.932;2023-02-18T10:53:24;101856.88;;;11.14;100.00
49645;BME280;36494;50.730;-1.932;2023-02-18T10:55:45;101853.32;;;11.24;100.00
49645;BME280;36494;50.730;-1.932;2023-02-18T10:58:25;101862.16;;;11.27;100.00
49645;BME280;36494;50.730;-1.932;2023-02-18T11:00:38;101867.46;;;11.24;100.00
49645;BME280;36494;50.730;-1.932;2023-02-18T11:03:03;101872.52;;;11.28;100.00
49645;BME280;36494;50.730;-1.932;2023-02-18T11:05:26;101871.08;;;11.31;100.00
49645;BME280;36494;50.730;-1.932;2023-02-18T11:07:52;101868.85;;;11.29;100.00
49645;BME280;36494;50.730;-1.932;2023-02-18T11:10:18;101869.60;;;11.38;100.00
49645;BME280;36494;50.730;-1.932;2023-02-18T11:12:44;101873.18;;;11.39;100.00
49645;BME280;36494;50.730;-1.932;2023-02-18T11:15:16;101869.09;;;11.39;100.00
49645;BME280;36494;50.730;-1.932;2023-02-18T11:17:34;101865.80;;;11.39;100.00
49645;BME280;36494;50.730;-1.932;2023-02-18T11:19:58;101864.92;;;11.46;100.00
49645;BME280;36494;50.730;-1.932;2023-02-18T11:22:24;101866.22;;;11.45;100.00
49645;BME280;36494;50.730;-1.932;2023-02-18T11:24:48;101861.33;;;11.50;100.00
49645;BME280;36494;50.730;-1.932;2023-02-18T11:27:20;101859.80;;;11.49;100.00
49645;BME280;36494;50.730;-1.932;2023-02-18T11:29:39;101865.80;;;11.29;100.00
49645;BME280;36494;50.730;-1.932;2023-02-18T11:32:09;101861.08;;;11.47;100.00
49645;BME280;36494;50.730;-1.932;2023-02-18T11:34:30;101860.68;;;11.50;100.00
49645;BME280;36494;50.730;-1.932;2023-02-18T11:36:55;101861.75;;;11.49;100.00
49645;BME280;36494;50.730;-1.932;2023-02-18T11:39:22;101860.87;;;11.60;100.00
49645;BME280;36494;50.730;-1.932;2023-02-18T11:41:52;101852.60;;;11.57;100.00
49645;BME280;36494;50.730;-1.932;2023-02-18T11:44:17;101860.86;;;11.51;100.00
49645;BME280;36494;50.730;-1.932;2023-02-18T11:46:37;101858.29;;;11.55;100.00
49645;BME280;36494;50.730;-1.932;2023-02-18T11:49:11;101862.85;;;11.58;100.00
49645;BME280;36494;50.730;-1.932;2023-02-18T11:51:33;101860.85;;;11.60;100.00
49645;BME280;36494;50.730;-1.932;2023-02-18T11:53:57;101867.05;;;11.57;100.00
49645;BME280;36494;50.730;-1.932;2023-02-18T11:56:20;101871.05;;;11.68;100.00
49645;BME280;36494;50.730;-1.932;2023-02-18T11:58:47;101874.73;;;11.75;100.00
49645;BME280;36494;50.730;-1.932;2023-02-18T12:01:14;101878.24;;;11.71;100.00
49645;BME280;36494;50.730;-1.932;2023-02-18T12:03:39;101872.89;;;11.70;100.00
49645;BME280;36494;50.730;-1.932;2023-02-18T12:06:03;101874.37;;;11.74;100.00
49645;BME280;36494;50.730;-1.932;2023-02-18T12:08:27;101871.08;;;11.79;100.00
49645;BME280;36494;50.730;-1.932;2023-02-18T12:10:54;101876.96;;;11.77;100.00
49645;BME280;36494;50.730;-1.932;2023-02-18T12:13:23;101879.01;;;11.75;100.00
49645;BME280;36494;50.730;-1.932;2023-02-18T12:15:51;101877.55;;;11.76;100.00
49645;BME280;36494;50.730;-1.932;2023-02-18T12:18:20;101875.94;;;11.68;100.00
49645;BME280;36494;50.730;-1.932;2023-02-18T12:20:42;101875.25;;;11.81;100.00
49645;BME280;36494;50.730;-1.932;2023-02-18T12:23:05;101868.04;;;11.75;100.00